GLD434 SDCO-SBMT
Flight info
| Callsign | GLD434 |
|---|---|
| Flight time | 0h 36m |
| Altitude | 5000 |
| Route | REA 233134S/0472228W 232959S/0464523W |
| Aircraft | C152/L-SDFGIRY/S |
Departure
| Time | 2026-05-05 23:50 |
|---|---|
| Airport | Sorocaba Airport (SDCO) |
Arrival
| Time | 2026-05-06 00:26 |
|---|---|
| Airport | Campo de Marte Airport (SBMT) |
| Time | Latitude | Longitude | Altitude | Speed | Heading |
|---|---|---|---|---|---|
| 2026-05-05 23:33 | -23.48106 | -47.48692 | 2079 ft | 0 kts | 251° |
| 2026-05-05 23:42 | -23.48112 | -47.48705 | 2078 ft | 5 kts | 229° |
| 2026-05-05 23:43 | -23.48140 | -47.48705 | 2079 ft | 4 kts | 160° |
| 2026-05-05 23:43 | -23.48174 | -47.48721 | 2079 ft | 8 kts | 249° |
| 2026-05-05 23:43 | -23.48148 | -47.48776 | 2077 ft | 11 kts | 338° |
| 2026-05-05 23:43 | -23.48068 | -47.48807 | 2073 ft | 14 kts | 341° |
| 2026-05-05 23:44 | -23.47965 | -47.48842 | 2067 ft | 15 kts | 341° |
| 2026-05-05 23:44 | -23.47892 | -47.48870 | 2062 ft | 10 kts | 341° |
| 2026-05-05 23:44 | -23.47825 | -47.48897 | 2059 ft | 10 kts | 340° |
| 2026-05-05 23:44 | -23.47766 | -47.48920 | 2058 ft | 9 kts | 339° |
| 2026-05-05 23:45 | -23.47700 | -47.48945 | 2055 ft | 12 kts | 343° |
| 2026-05-05 23:45 | -23.47641 | -47.48967 | 2052 ft | 8 kts | 338° |
| 2026-05-05 23:45 | -23.47574 | -47.48990 | 2050 ft | 12 kts | 343° |
| 2026-05-05 23:45 | -23.47512 | -47.49013 | 2048 ft | 9 kts | 342° |
| 2026-05-05 23:46 | -23.47448 | -47.49037 | 2047 ft | 9 kts | 340° |
| 2026-05-05 23:46 | -23.47389 | -47.49058 | 2044 ft | 9 kts | 341° |
| 2026-05-05 23:46 | -23.47324 | -47.49083 | 2041 ft | 5 kts | 339° |
| 2026-05-05 23:46 | -23.47277 | -47.49101 | 2039 ft | 10 kts | 341° |
| 2026-05-05 23:47 | -23.47230 | -47.49129 | 2036 ft | 8 kts | 301° |
| 2026-05-05 23:47 | -23.47212 | -47.49168 | 2039 ft | 0 kts | 296° |
| 2026-05-05 23:48 | -23.47202 | -47.49197 | 2034 ft | 9 kts | 275° |
| 2026-05-05 23:48 | -23.47230 | -47.49208 | 2035 ft | 0 kts | 165° |
| 2026-05-05 23:48 | -23.47302 | -47.49181 | 2037 ft | 33 kts | 159° |
| 2026-05-05 23:49 | -23.47651 | -47.49058 | 2088 ft | 64 kts | 161° |
| 2026-05-05 23:49 | -23.48090 | -47.48932 | 2249 ft | 66 kts | 156° |
| 2026-05-05 23:49 | -23.48522 | -47.48781 | 2451 ft | 68 kts | 160° |
| 2026-05-05 23:49 | -23.48979 | -47.48628 | 2616 ft | 69 kts | 161° |
| 2026-05-05 23:50 | -23.49444 | -47.48484 | 2799 ft | 70 kts | 161° |
| 2026-05-05 23:50 | -23.49788 | -47.48145 | 2991 ft | 69 kts | 109° |
| 2026-05-05 23:50 | -23.49880 | -47.47626 | 3188 ft | 71 kts | 96° |
| 2026-05-05 23:50 | -23.49914 | -47.47078 | 3368 ft | 73 kts | 94° |
| 2026-05-05 23:51 | -23.49931 | -47.46518 | 3547 ft | 74 kts | 92° |
| 2026-05-05 23:51 | -23.49952 | -47.45959 | 3680 ft | 73 kts | 93° |
| 2026-05-05 23:51 | -23.49962 | -47.45404 | 3860 ft | 73 kts | 93° |
| 2026-05-05 23:51 | -23.49983 | -47.44842 | 4056 ft | 74 kts | 94° |
| 2026-05-05 23:52 | -23.50006 | -47.44277 | 4292 ft | 73 kts | 95° |
| 2026-05-05 23:52 | -23.50027 | -47.43710 | 4429 ft | 78 kts | 93° |
| 2026-05-05 23:52 | -23.50054 | -47.43115 | 4479 ft | 80 kts | 93° |
| 2026-05-05 23:52 | -23.50139 | -47.42499 | 4542 ft | 86 kts | 111° |
| 2026-05-05 23:53 | -23.50474 | -47.41939 | 4545 ft | 89 kts | 122° |
| 2026-05-05 23:53 | -23.50804 | -47.41345 | 4581 ft | 94 kts | 117° |
| 2026-05-05 23:53 | -23.51148 | -47.40752 | 4543 ft | 92 kts | 120° |
| 2026-05-05 23:53 | -23.51506 | -47.40161 | 4596 ft | 95 kts | 119° |
| 2026-05-05 23:54 | -23.51879 | -47.39556 | 4601 ft | 96 kts | 121° |
| 2026-05-05 23:54 | -23.52250 | -47.38949 | 4628 ft | 98 kts | 120° |
| 2026-05-05 23:54 | -23.52625 | -47.38320 | 4640 ft | 100 kts | 120° |
| 2026-05-05 23:54 | -23.52876 | -47.37896 | 4651 ft | 100 kts | 122° |
| 2026-05-05 23:55 | -23.53268 | -47.37269 | 4656 ft | 99 kts | 124° |
| 2026-05-05 23:55 | -23.53648 | -47.36649 | 4613 ft | 99 kts | 118° |
| 2026-05-05 23:55 | -23.54042 | -47.36001 | 4736 ft | 105 kts | 121° |
| 2026-05-05 23:55 | -23.54429 | -47.35353 | 4614 ft | 98 kts | 120° |
| 2026-05-05 23:56 | -23.54801 | -47.34756 | 4612 ft | 95 kts | 116° |
| 2026-05-05 23:56 | -23.55179 | -47.34160 | 4631 ft | 93 kts | 119° |
| 2026-05-05 23:56 | -23.55545 | -47.33585 | 4609 ft | 92 kts | 120° |
| 2026-05-05 23:56 | -23.55901 | -47.32990 | 4627 ft | 95 kts | 123° |
| 2026-05-05 23:57 | -23.56260 | -47.32380 | 4664 ft | 96 kts | 120° |
| 2026-05-05 23:57 | -23.56615 | -47.31773 | 4581 ft | 93 kts | 121° |
| 2026-05-05 23:57 | -23.56962 | -47.31195 | 4672 ft | 89 kts | 123° |
| 2026-05-05 23:57 | -23.57314 | -47.30657 | 4816 ft | 85 kts | 121° |
| 2026-05-05 23:58 | -23.57651 | -47.30128 | 4913 ft | 84 kts | 121° |
| 2026-05-05 23:58 | -23.57988 | -47.29607 | 5095 ft | 83 kts | 121° |
| 2026-05-05 23:58 | -23.58311 | -47.29083 | 5149 ft | 84 kts | 121° |
| 2026-05-05 23:58 | -23.58644 | -47.28517 | 5274 ft | 90 kts | 121° |
| 2026-05-05 23:59 | -23.58980 | -47.27931 | 5366 ft | 96 kts | 120° |
| 2026-05-05 23:59 | -23.59348 | -47.27295 | 5263 ft | 103 kts | 121° |
| 2026-05-05 23:59 | -23.59730 | -47.26645 | 5229 ft | 101 kts | 119° |
| 2026-05-05 23:59 | -23.60101 | -47.25995 | 5270 ft | 102 kts | 120° |
| 2026-05-06 00:00 | -23.60458 | -47.25373 | 5139 ft | 91 kts | 118° |
| 2026-05-06 00:00 | -23.60807 | -47.24828 | 5178 ft | 86 kts | 123° |
| 2026-05-06 00:00 | -23.61149 | -47.24286 | 5171 ft | 85 kts | 121° |
| 2026-05-06 00:00 | -23.61493 | -47.23736 | 5276 ft | 93 kts | 119° |
| 2026-05-06 00:01 | -23.61853 | -47.23155 | 5195 ft | 92 kts | 121° |
| 2026-05-06 00:01 | -23.62212 | -47.22565 | 5192 ft | 95 kts | 120° |
| 2026-05-06 00:01 | -23.62578 | -47.21960 | 5189 ft | 97 kts | 120° |
| 2026-05-06 00:01 | -23.62937 | -47.21331 | 5207 ft | 97 kts | 121° |
| 2026-05-06 00:02 | -23.63306 | -47.20726 | 5170 ft | 96 kts | 121° |
| 2026-05-06 00:02 | -23.63656 | -47.20125 | 5262 ft | 93 kts | 121° |
| 2026-05-06 00:02 | -23.64004 | -47.19546 | 5345 ft | 88 kts | 121° |
| 2026-05-06 00:02 | -23.64337 | -47.19002 | 5334 ft | 89 kts | 121° |
| 2026-05-06 00:03 | -23.64708 | -47.18388 | 5278 ft | 103 kts | 120° |
| 2026-05-06 00:03 | -23.65100 | -47.17734 | 5211 ft | 101 kts | 121° |
| 2026-05-06 00:03 | -23.65473 | -47.17110 | 5131 ft | 96 kts | 118° |
| 2026-05-06 00:03 | -23.65838 | -47.16501 | 5112 ft | 95 kts | 121° |
| 2026-05-06 00:04 | -23.66194 | -47.15876 | 5177 ft | 99 kts | 117° |
| 2026-05-06 00:04 | -23.66566 | -47.15225 | 5058 ft | 101 kts | 119° |
| 2026-05-06 00:04 | -23.66925 | -47.14584 | 4938 ft | 95 kts | 119° |
| 2026-05-06 00:04 | -23.67269 | -47.13987 | 4885 ft | 90 kts | 120° |
| 2026-05-06 00:05 | -23.67776 | -47.12817 | 4990 ft | 91 kts | 79° |
| 2026-05-06 00:05 | -23.67641 | -47.12133 | 5019 ft | 94 kts | 78° |
| 2026-05-06 00:05 | -23.67505 | -47.11401 | 5064 ft | 102 kts | 81° |
| 2026-05-06 00:06 | -23.67324 | -47.10645 | 4980 ft | 102 kts | 66° |
| 2026-05-06 00:06 | -23.66930 | -47.10008 | 5010 ft | 102 kts | 60° |
| 2026-05-06 00:06 | -23.66523 | -47.09394 | 4899 ft | 96 kts | 56° |
| 2026-05-06 00:06 | -23.66124 | -47.08835 | 4894 ft | 92 kts | 56° |
| 2026-05-06 00:07 | -23.65701 | -47.08273 | 5016 ft | 100 kts | 50° |
| 2026-05-06 00:07 | -23.65259 | -47.07708 | 4906 ft | 96 kts | 54° |
| 2026-05-06 00:07 | -23.64842 | -47.07170 | 4855 ft | 90 kts | 54° |
| 2026-05-06 00:07 | -23.64442 | -47.06647 | 4849 ft | 88 kts | 54° |
| 2026-05-06 00:08 | -23.64021 | -47.06145 | 4900 ft | 92 kts | 52° |
| 2026-05-06 00:08 | -23.63607 | -47.05631 | 4851 ft | 88 kts | 53° |
| 2026-05-06 00:08 | -23.63201 | -47.05120 | 4896 ft | 90 kts | 53° |
| 2026-05-06 00:08 | -23.62798 | -47.04606 | 4902 ft | 89 kts | 53° |
| 2026-05-06 00:09 | -23.62386 | -47.04079 | 4923 ft | 92 kts | 56° |
| 2026-05-06 00:09 | -23.61961 | -47.03554 | 4911 ft | 92 kts | 52° |
| 2026-05-06 00:09 | -23.61547 | -47.03028 | 4911 ft | 91 kts | 56° |
| 2026-05-06 00:09 | -23.61133 | -47.02497 | 4944 ft | 94 kts | 52° |
| 2026-05-06 00:10 | -23.60680 | -47.01950 | 4979 ft | 99 kts | 53° |
| 2026-05-06 00:10 | -23.60234 | -47.01373 | 5002 ft | 101 kts | 54° |
| 2026-05-06 00:10 | -23.59786 | -47.00781 | 4990 ft | 102 kts | 56° |
| 2026-05-06 00:10 | -23.59365 | -47.00193 | 4902 ft | 95 kts | 56° |
| 2026-05-06 00:11 | -23.58972 | -46.99641 | 4869 ft | 90 kts | 56° |
| 2026-05-06 00:11 | -23.58595 | -46.99119 | 4846 ft | 85 kts | 57° |
| 2026-05-06 00:11 | -23.58231 | -46.98628 | 4833 ft | 81 kts | 55° |
| 2026-05-06 00:11 | -23.57849 | -46.98114 | 5046 ft | 96 kts | 54° |
| 2026-05-06 00:12 | -23.57443 | -46.97535 | 4946 ft | 95 kts | 56° |
| 2026-05-06 00:12 | -23.57049 | -46.96980 | 4898 ft | 90 kts | 57° |
| 2026-05-06 00:12 | -23.56676 | -46.96438 | 4974 ft | 92 kts | 59° |
| 2026-05-06 00:12 | -23.56269 | -46.95869 | 4962 ft | 95 kts | 58° |
| 2026-05-06 00:13 | -23.55846 | -46.95297 | 4991 ft | 97 kts | 56° |
| 2026-05-06 00:13 | -23.55441 | -46.94691 | 5001 ft | 100 kts | 58° |
| 2026-05-06 00:13 | -23.55034 | -46.94082 | 4997 ft | 98 kts | 58° |
| 2026-05-06 00:13 | -23.54637 | -46.93488 | 4972 ft | 95 kts | 57° |
| 2026-05-06 00:14 | -23.54241 | -46.92924 | 4918 ft | 93 kts | 56° |
| 2026-05-06 00:14 | -23.53981 | -46.92354 | 4884 ft | 91 kts | 73° |
| 2026-05-06 00:14 | -23.53794 | -46.91696 | 4792 ft | 91 kts | 77° |
| 2026-05-06 00:14 | -23.53633 | -46.91037 | 4648 ft | 90 kts | 78° |
| 2026-05-06 00:15 | -23.53484 | -46.90370 | 4530 ft | 91 kts | 79° |
| 2026-05-06 00:15 | -23.53338 | -46.89687 | 4437 ft | 91 kts | 78° |
| 2026-05-06 00:15 | -23.53205 | -46.89013 | 4332 ft | 91 kts | 80° |
| 2026-05-06 00:15 | -23.53069 | -46.88333 | 4230 ft | 92 kts | 80° |
| 2026-05-06 00:16 | -23.52941 | -46.87667 | 4074 ft | 88 kts | 80° |
| 2026-05-06 00:16 | -23.52811 | -46.87019 | 3905 ft | 86 kts | 79° |
| 2026-05-06 00:16 | -23.52684 | -46.86387 | 3846 ft | 85 kts | 79° |
| 2026-05-06 00:16 | -23.52556 | -46.85771 | 3796 ft | 84 kts | 80° |
| 2026-05-06 00:17 | -23.52429 | -46.85150 | 3762 ft | 84 kts | 79° |
| 2026-05-06 00:17 | -23.52311 | -46.84537 | 3719 ft | 80 kts | 79° |
| 2026-05-06 00:17 | -23.52197 | -46.83956 | 3713 ft | 77 kts | 79° |
| 2026-05-06 00:17 | -23.52080 | -46.83391 | 3702 ft | 74 kts | 79° |
| 2026-05-06 00:18 | -23.51966 | -46.82850 | 3706 ft | 73 kts | 79° |
| 2026-05-06 00:18 | -23.51852 | -46.82296 | 3704 ft | 77 kts | 79° |
| 2026-05-06 00:18 | -23.51734 | -46.81713 | 3718 ft | 81 kts | 79° |
| 2026-05-06 00:18 | -23.51615 | -46.81108 | 3716 ft | 83 kts | 79° |
| 2026-05-06 00:19 | -23.51497 | -46.80493 | 3689 ft | 82 kts | 79° |
| 2026-05-06 00:19 | -23.51382 | -46.79891 | 3711 ft | 83 kts | 79° |
| 2026-05-06 00:19 | -23.51262 | -46.79263 | 3721 ft | 85 kts | 79° |
| 2026-05-06 00:19 | -23.51139 | -46.78626 | 3723 ft | 87 kts | 79° |
| 2026-05-06 00:20 | -23.51014 | -46.77983 | 3726 ft | 87 kts | 79° |
| 2026-05-06 00:20 | -23.50890 | -46.77332 | 3718 ft | 87 kts | 79° |
| 2026-05-06 00:20 | -23.50768 | -46.76686 | 3718 ft | 87 kts | 79° |
| 2026-05-06 00:20 | -23.50644 | -46.76044 | 3712 ft | 87 kts | 79° |
| 2026-05-06 00:21 | -23.50514 | -46.75396 | 3697 ft | 89 kts | 79° |
| 2026-05-06 00:21 | -23.50384 | -46.74744 | 3674 ft | 87 kts | 79° |
| 2026-05-06 00:21 | -23.50260 | -46.74112 | 3648 ft | 84 kts | 78° |
| 2026-05-06 00:21 | -23.50150 | -46.73699 | 3636 ft | 84 kts | 74° |
| 2026-05-06 00:22 | -23.49957 | -46.73106 | 3632 ft | 82 kts | 72° |
| 2026-05-06 00:22 | -23.49757 | -46.72543 | 3626 ft | 78 kts | 71° |
| 2026-05-06 00:22 | -23.49559 | -46.72005 | 3630 ft | 76 kts | 71° |
| 2026-05-06 00:22 | -23.49447 | -46.71453 | 3615 ft | 73 kts | 90° |
| 2026-05-06 00:23 | -23.49485 | -46.70907 | 3628 ft | 73 kts | 98° |
| 2026-05-06 00:23 | -23.49574 | -46.70361 | 3631 ft | 74 kts | 101° |
| 2026-05-06 00:23 | -23.49724 | -46.69808 | 3585 ft | 76 kts | 105° |
| 2026-05-06 00:23 | -23.49870 | -46.69244 | 3523 ft | 77 kts | 103° |
| 2026-05-06 00:24 | -23.50004 | -46.68668 | 3402 ft | 81 kts | 102° |
| 2026-05-06 00:24 | -23.50117 | -46.68080 | 3310 ft | 81 kts | 101° |
| 2026-05-06 00:24 | -23.50236 | -46.67492 | 3270 ft | 79 kts | 103° |
| 2026-05-06 00:24 | -23.50365 | -46.66865 | 3153 ft | 84 kts | 98° |
| 2026-05-06 00:25 | -23.50458 | -46.66255 | 3088 ft | 78 kts | 101° |
| 2026-05-06 00:25 | -23.50561 | -46.65682 | 2891 ft | 75 kts | 103° |
| 2026-05-06 00:25 | -23.50665 | -46.65145 | 2753 ft | 73 kts | 102° |
| 2026-05-06 00:25 | -23.50756 | -46.64662 | 2565 ft | 64 kts | 98° |
| 2026-05-06 00:26 | -23.50838 | -46.64217 | 2410 ft | 55 kts | 99° |
| 2026-05-06 00:26 | -23.50895 | -46.63822 | 2382 ft | 46 kts | 101° |
| 2026-05-06 00:26 | -23.50950 | -46.63532 | 2382 ft | 27 kts | 102° |
| 2026-05-06 00:26 | -23.50989 | -46.63444 | 2382 ft | 11 kts | 169° |
| 2026-05-06 00:27 | -23.51008 | -46.63446 | 2381 ft | 0 kts | 193° |
| 2026-05-06 00:27 | -23.51009 | -46.63446 | 2381 ft | 0 kts | 193° |
| 2026-05-06 00:27 | -23.51038 | -46.63450 | 2380 ft | 9 kts | 174° |
| 2026-05-06 00:28 | -23.51111 | -46.63439 | 2380 ft | 10 kts | 172° |
| 2026-05-06 00:28 | -23.51164 | -46.63427 | 2380 ft | 4 kts | 147° |
| 2026-05-06 00:28 | -23.51171 | -46.63396 | 2380 ft | 4 kts | 90° |
| 2026-05-06 00:28 | -23.51193 | -46.63383 | 2380 ft | 5 kts | 182° |
| 2026-05-06 00:29 | -23.51211 | -46.63383 | 2380 ft | 0 kts | 180° |